sensor_id;sensor_type;location;lat;lon;timestamp;P1;durP1;ratioP1;P2;durP2;ratioP2
55148;SDS011;49539;48.160;11.530;2023-10-19T00:00:35;27.88;;;15.90;;
55148;SDS011;49539;48.160;11.530;2023-10-19T00:03:01;26.30;;;16.60;;
55148;SDS011;49539;48.160;11.530;2023-10-19T00:05:31;27.65;;;16.35;;
55148;SDS011;49539;48.160;11.530;2023-10-19T00:08:00;25.25;;;16.25;;
55148;SDS011;49539;48.160;11.530;2023-10-19T00:10:30;26.20;;;16.52;;
55148;SDS011;49539;48.160;11.530;2023-10-19T00:12:59;27.40;;;16.85;;
55148;SDS011;49539;48.160;11.530;2023-10-19T00:15:29;26.15;;;16.13;;
55148;SDS011;49539;48.160;11.530;2023-10-19T00:17:57;26.85;;;16.30;;
55148;SDS011;49539;48.160;11.530;2023-10-19T00:20:24;25.98;;;16.23;;
55148;SDS011;49539;48.160;11.530;2023-10-19T00:23:15;25.58;;;17.75;;
55148;SDS011;49539;48.160;11.530;2023-10-19T00:25:44;27.63;;;15.95;;
55148;SDS011;49539;48.160;11.530;2023-10-19T00:28:09;26.40;;;16.63;;
55148;SDS011;49539;48.160;11.530;2023-10-19T00:30:38;25.17;;;16.08;;
55148;SDS011;49539;48.160;11.530;2023-10-19T00:33:03;28.27;;;15.85;;
55148;SDS011;49539;48.160;11.530;2023-10-19T00:35:30;26.08;;;16.70;;
55148;SDS011;49539;48.160;11.530;2023-10-19T00:38:07;26.23;;;15.40;;
55148;SDS011;49539;48.160;11.530;2023-10-19T00:40:51;25.45;;;16.13;;
55148;SDS011;49539;48.160;11.530;2023-10-19T00:43:30;27.77;;;16.55;;
55148;SDS011;49539;48.160;11.530;2023-10-19T00:46:02;24.80;;;16.02;;
55148;SDS011;49539;48.160;11.530;2023-10-19T00:48:30;26.00;;;15.63;;
55148;SDS011;49539;48.160;11.530;2023-10-19T00:50:57;24.30;;;16.95;;
55148;SDS011;49539;48.160;11.530;2023-10-19T00:53:36;23.88;;;16.02;;
55148;SDS011;49539;48.160;11.530;2023-10-19T00:56:03;31.67;;;16.60;;
55148;SDS011;49539;48.160;11.530;2023-10-19T00:58:31;26.02;;;15.90;;
55148;SDS011;49539;48.160;11.530;2023-10-19T01:00:56;24.13;;;15.25;;
55148;SDS011;49539;48.160;11.530;2023-10-19T01:03:25;23.80;;;14.63;;
55148;SDS011;49539;48.160;11.530;2023-10-19T01:05:57;27.67;;;15.70;;
55148;SDS011;49539;48.160;11.530;2023-10-19T01:08:23;26.30;;;16.35;;
55148;SDS011;49539;48.160;11.530;2023-10-19T01:10:56;24.27;;;15.30;;
55148;SDS011;49539;48.160;11.530;2023-10-19T01:13:22;25.90;;;15.98;;
55148;SDS011;49539;48.160;11.530;2023-10-19T01:15:52;25.63;;;15.73;;
55148;SDS011;49539;48.160;11.530;2023-10-19T01:18:17;25.45;;;15.60;;
55148;SDS011;49539;48.160;11.530;2023-10-19T01:20:43;24.42;;;16.50;;
55148;SDS011;49539;48.160;11.530;2023-10-19T01:23:20;23.63;;;15.23;;
55148;SDS011;49539;48.160;11.530;2023-10-19T01:28:19;26.90;;;16.63;;
55148;SDS011;49539;48.160;11.530;2023-10-19T01:30:47;24.92;;;14.32;;
55148;SDS011;49539;48.160;11.530;2023-10-19T01:33:16;27.05;;;15.88;;
55148;SDS011;49539;48.160;11.530;2023-10-19T01:35:42;24.65;;;15.05;;
55148;SDS011;49539;48.160;11.530;2023-10-19T01:38:29;23.13;;;14.98;;
55148;SDS011;49539;48.160;11.530;2023-10-19T01:40:58;26.38;;;14.98;;
55148;SDS011;49539;48.160;11.530;2023-10-19T01:43:25;23.10;;;14.85;;
55148;SDS011;49539;48.160;11.530;2023-10-19T01:45:53;25.67;;;15.68;;
55148;SDS011;49539;48.160;11.530;2023-10-19T01:48:21;23.05;;;15.02;;
55148;SDS011;49539;48.160;11.530;2023-10-19T01:53:34;28.30;;;15.65;;
55148;SDS011;49539;48.160;11.530;2023-10-19T01:56:01;23.05;;;15.38;;
55148;SDS011;49539;48.160;11.530;2023-10-19T01:58:30;25.88;;;15.27;;
55148;SDS011;49539;48.160;11.530;2023-10-19T02:00:55;27.27;;;16.50;;
55148;SDS011;49539;48.160;11.530;2023-10-19T02:03:25;26.52;;;15.23;;
55148;SDS011;49539;48.160;11.530;2023-10-19T02:05:59;25.70;;;15.50;;
55148;SDS011;49539;48.160;11.530;2023-10-19T02:08:27;25.92;;;15.75;;
55148;SDS011;49539;48.160;11.530;2023-10-19T02:10:53;28.75;;;15.25;;
55148;SDS011;49539;48.160;11.530;2023-10-19T02:13:19;26.98;;;14.40;;
55148;SDS011;49539;48.160;11.530;2023-10-19T02:15:44;20.25;;;13.40;;
55148;SDS011;49539;48.160;11.530;2023-10-19T02:18:09;23.92;;;15.05;;
55148;SDS011;49539;48.160;11.530;2023-10-19T02:20:35;21.48;;;14.68;;
55148;SDS011;49539;48.160;11.530;2023-10-19T02:23:04;21.75;;;14.38;;
55148;SDS011;49539;48.160;11.530;2023-10-19T02:25:30;22.50;;;14.70;;
55148;SDS011;49539;48.160;11.530;2023-10-19T02:28:02;28.38;;;15.10;;
55148;SDS011;49539;48.160;11.530;2023-10-19T02:30:28;24.42;;;14.65;;
55148;SDS011;49539;48.160;11.530;2023-10-19T02:32:53;22.83;;;14.55;;
55148;SDS011;49539;48.160;11.530;2023-10-19T02:35:18;24.95;;;15.73;;
55148;SDS011;49539;48.160;11.530;2023-10-19T02:37:44;22.88;;;14.63;;
55148;SDS011;49539;48.160;11.530;2023-10-19T02:40:10;23.48;;;14.85;;
55148;SDS011;49539;48.160;11.530;2023-10-19T02:42:37;23.85;;;15.55;;
55148;SDS011;49539;48.160;11.530;2023-10-19T02:45:03;23.70;;;15.68;;
55148;SDS011;49539;48.160;11.530;2023-10-19T02:47:30;22.40;;;14.10;;
55148;SDS011;49539;48.160;11.530;2023-10-19T02:49:55;23.92;;;15.10;;
55148;SDS011;49539;48.160;11.530;2023-10-19T02:52:21;21.33;;;15.57;;
55148;SDS011;49539;48.160;11.530;2023-10-19T02:54:47;23.50;;;14.02;;
55148;SDS011;49539;48.160;11.530;2023-10-19T02:57:17;25.88;;;14.93;;
55148;SDS011;49539;48.160;11.530;2023-10-19T02:59:44;27.35;;;16.52;;
55148;SDS011;49539;48.160;11.530;2023-10-19T03:02:12;26.00;;;16.52;;
55148;SDS011;49539;48.160;11.530;2023-10-19T03:04:37;22.45;;;14.88;;
55148;SDS011;49539;48.160;11.530;2023-10-19T03:07:03;22.85;;;15.27;;
55148;SDS011;49539;48.160;11.530;2023-10-19T03:09:29;28.60;;;16.25;;
55148;SDS011;49539;48.160;11.530;2023-10-19T03:11:55;24.48;;;16.23;;
55148;SDS011;49539;48.160;11.530;2023-10-19T03:14:24;26.15;;;17.17;;
55148;SDS011;49539;48.160;11.530;2023-10-19T03:16:50;24.17;;;15.30;;
55148;SDS011;49539;48.160;11.530;2023-10-19T03:19:16;25.17;;;15.88;;
55148;SDS011;49539;48.160;11.530;2023-10-19T03:21:41;23.60;;;14.52;;
55148;SDS011;49539;48.160;11.530;2023-10-19T03:24:10;24.45;;;15.82;;
55148;SDS011;49539;48.160;11.530;2023-10-19T03:26:51;25.27;;;15.95;;
55148;SDS011;49539;48.160;11.530;2023-10-19T03:29:16;25.42;;;15.30;;
55148;SDS011;49539;48.160;11.530;2023-10-19T03:31:47;25.60;;;16.25;;
55148;SDS011;49539;48.160;11.530;2023-10-19T03:34:13;23.70;;;14.63;;
55148;SDS011;49539;48.160;11.530;2023-10-19T03:36:39;25.38;;;15.38;;
55148;SDS011;49539;48.160;11.530;2023-10-19T03:39:04;24.38;;;15.32;;
55148;SDS011;49539;48.160;11.530;2023-10-19T03:41:37;23.17;;;15.55;;
55148;SDS011;49539;48.160;11.530;2023-10-19T03:44:04;18.73;;;12.90;;
55148;SDS011;49539;48.160;11.530;2023-10-19T03:46:29;22.67;;;14.13;;
55148;SDS011;49539;48.160;11.530;2023-10-19T03:48:59;21.13;;;13.48;;
55148;SDS011;49539;48.160;11.530;2023-10-19T03:51:29;20.77;;;13.25;;
55148;SDS011;49539;48.160;11.530;2023-10-19T03:54:05;23.50;;;14.07;;
55148;SDS011;49539;48.160;11.530;2023-10-19T03:56:32;22.63;;;13.27;;
55148;SDS011;49539;48.160;11.530;2023-10-19T03:58:58;21.50;;;13.50;;
55148;SDS011;49539;48.160;11.530;2023-10-19T04:01:25;20.70;;;12.43;;
55148;SDS011;49539;48.160;11.530;2023-10-19T04:03:50;20.57;;;12.73;;
55148;SDS011;49539;48.160;11.530;2023-10-19T04:06:18;22.30;;;13.77;;
55148;SDS011;49539;48.160;11.530;2023-10-19T04:08:45;19.75;;;12.60;;
55148;SDS011;49539;48.160;11.530;2023-10-19T04:11:17;18.65;;;12.70;;
55148;SDS011;49539;48.160;11.530;2023-10-19T04:13:48;19.55;;;12.35;;
55148;SDS011;49539;48.160;11.530;2023-10-19T04:16:19;21.75;;;13.60;;
55148;SDS011;49539;48.160;11.530;2023-10-19T04:18:44;20.63;;;12.02;;
55148;SDS011;49539;48.160;11.530;2023-10-19T04:21:09;23.37;;;13.23;;
55148;SDS011;49539;48.160;11.530;2023-10-19T04:23:35;31.02;;;12.15;;
55148;SDS011;49539;48.160;11.530;2023-10-19T04:26:04;18.27;;;11.93;;
55148;SDS011;49539;48.160;11.530;2023-10-19T04:28:39;16.80;;;10.10;;
55148;SDS011;49539;48.160;11.530;2023-10-19T04:31:15;19.25;;;11.07;;
55148;SDS011;49539;48.160;11.530;2023-10-19T04:33:41;17.85;;;11.70;;
55148;SDS011;49539;48.160;11.530;2023-10-19T04:36:13;21.20;;;12.25;;
55148;SDS011;49539;48.160;11.530;2023-10-19T04:38:39;15.95;;;11.95;;
55148;SDS011;49539;48.160;11.530;2023-10-19T04:41:08;16.45;;;11.25;;
55148;SDS011;49539;48.160;11.530;2023-10-19T04:43:34;17.33;;;12.05;;
55148;SDS011;49539;48.160;11.530;2023-10-19T04:46:03;16.63;;;10.65;;
55148;SDS011;49539;48.160;11.530;2023-10-19T04:48:32;17.48;;;12.30;;
55148;SDS011;49539;48.160;11.530;2023-10-19T04:50:58;16.77;;;11.10;;
55148;SDS011;49539;48.160;11.530;2023-10-19T04:53:23;19.70;;;12.53;;
55148;SDS011;49539;48.160;11.530;2023-10-19T04:55:48;16.00;;;10.98;;
55148;SDS011;49539;48.160;11.530;2023-10-19T04:58:15;18.92;;;11.10;;
55148;SDS011;49539;48.160;11.530;2023-10-19T05:00:40;16.40;;;10.50;;
55148;SDS011;49539;48.160;11.530;2023-10-19T05:03:06;16.92;;;10.65;;
55148;SDS011;49539;48.160;11.530;2023-10-19T05:05:32;15.52;;;10.80;;
55148;SDS011;49539;48.160;11.530;2023-10-19T05:07:57;17.45;;;10.75;;
55148;SDS011;49539;48.160;11.530;2023-10-19T05:10:22;17.98;;;10.43;;
55148;SDS011;49539;48.160;11.530;2023-10-19T05:12:48;13.80;;;9.38;;
55148;SDS011;49539;48.160;11.530;2023-10-19T05:15:13;16.75;;;11.43;;
55148;SDS011;49539;48.160;11.530;2023-10-19T05:17:38;17.70;;;10.45;;
55148;SDS011;49539;48.160;11.530;2023-10-19T05:20:04;16.98;;;10.85;;
55148;SDS011;49539;48.160;11.530;2023-10-19T05:22:30;21.67;;;11.27;;
55148;SDS011;49539;48.160;11.530;2023-10-19T05:24:57;16.27;;;10.75;;
55148;SDS011;49539;48.160;11.530;2023-10-19T05:27:23;15.35;;;9.63;;
55148;SDS011;49539;48.160;11.530;2023-10-19T05:29:48;15.18;;;10.52;;
55148;SDS011;49539;48.160;11.530;2023-10-19T05:32:14;14.25;;;9.38;;
55148;SDS011;49539;48.160;11.530;2023-10-19T05:34:39;15.48;;;10.07;;
55148;SDS011;49539;48.160;11.530;2023-10-19T05:37:04;14.10;;;9.35;;
55148;SDS011;49539;48.160;11.530;2023-10-19T05:39:31;15.68;;;10.73;;
55148;SDS011;49539;48.160;11.530;2023-10-19T05:41:56;16.52;;;9.57;;
55148;SDS011;49539;48.160;11.530;2023-10-19T05:44:25;13.98;;;8.68;;
55148;SDS011;49539;48.160;11.530;2023-10-19T05:46:51;15.68;;;9.18;;
55148;SDS011;49539;48.160;11.530;2023-10-19T05:49:16;17.67;;;11.32;;
55148;SDS011;49539;48.160;11.530;2023-10-19T05:51:43;15.20;;;9.77;;
55148;SDS011;49539;48.160;11.530;2023-10-19T05:54:12;16.48;;;9.32;;
55148;SDS011;49539;48.160;11.530;2023-10-19T05:56:37;15.57;;;9.38;;
55148;SDS011;49539;48.160;11.530;2023-10-19T05:59:03;15.55;;;9.88;;
55148;SDS011;49539;48.160;11.530;2023-10-19T06:01:30;15.02;;;9.88;;
55148;SDS011;49539;48.160;11.530;2023-10-19T06:03:56;16.58;;;10.07;;
55148;SDS011;49539;48.160;11.530;2023-10-19T06:06:22;14.20;;;9.27;;
55148;SDS011;49539;48.160;11.530;2023-10-19T06:08:47;12.52;;;8.98;;
55148;SDS011;49539;48.160;11.530;2023-10-19T06:11:12;12.10;;;9.13;;
55148;SDS011;49539;48.160;11.530;2023-10-19T06:13:38;15.27;;;10.48;;
55148;SDS011;49539;48.160;11.530;2023-10-19T06:16:06;17.15;;;9.63;;
55148;SDS011;49539;48.160;11.530;2023-10-19T06:18:31;16.05;;;11.05;;
55148;SDS011;49539;48.160;11.530;2023-10-19T06:20:57;16.85;;;10.35;;
55148;SDS011;49539;48.160;11.530;2023-10-19T06:23:23;15.80;;;9.48;;
55148;SDS011;49539;48.160;11.530;2023-10-19T06:25:48;13.88;;;9.27;;
55148;SDS011;49539;48.160;11.530;2023-10-19T06:28:15;16.55;;;9.57;;
55148;SDS011;49539;48.160;11.530;2023-10-19T06:30:41;16.27;;;9.00;;
55148;SDS011;49539;48.160;11.530;2023-10-19T06:33:06;16.90;;;9.05;;
55148;SDS011;49539;48.160;11.530;2023-10-19T06:35:31;13.55;;;9.00;;
55148;SDS011;49539;48.160;11.530;2023-10-19T06:37:58;14.05;;;9.55;;
55148;SDS011;49539;48.160;11.530;2023-10-19T06:40:27;14.00;;;9.43;;
55148;SDS011;49539;48.160;11.530;2023-10-19T06:42:55;13.57;;;8.80;;
55148;SDS011;49539;48.160;11.530;2023-10-19T06:45:21;14.23;;;9.48;;
55148;SDS011;49539;48.160;11.530;2023-10-19T06:47:47;11.85;;;8.57;;
55148;SDS011;49539;48.160;11.530;2023-10-19T06:50:13;17.17;;;10.40;;
55148;SDS011;49539;48.160;11.530;2023-10-19T06:52:41;15.60;;;9.52;;
55148;SDS011;49539;48.160;11.530;2023-10-19T06:55:08;13.32;;;8.75;;
55148;SDS011;49539;48.160;11.530;2023-10-19T06:57:39;14.15;;;8.30;;
55148;SDS011;49539;48.160;11.530;2023-10-19T07:00:04;14.98;;;9.00;;
55148;SDS011;49539;48.160;11.530;2023-10-19T07:02:41;11.43;;;7.97;;
55148;SDS011;49539;48.160;11.530;2023-10-19T07:05:08;14.27;;;8.70;;
55148;SDS011;49539;48.160;11.530;2023-10-19T07:07:43;14.50;;;8.27;;
55148;SDS011;49539;48.160;11.530;2023-10-19T07:10:10;14.07;;;8.00;;
55148;SDS011;49539;48.160;11.530;2023-10-19T07:12:37;13.15;;;9.05;;
55148;SDS011;49539;48.160;11.530;2023-10-19T07:15:06;13.20;;;8.32;;
55148;SDS011;49539;48.160;11.530;2023-10-19T07:17:35;13.18;;;9.05;;
55148;SDS011;49539;48.160;11.530;2023-10-19T07:20:03;14.43;;;8.45;;
55148;SDS011;49539;48.160;11.530;2023-10-19T07:22:28;11.70;;;7.70;;
55148;SDS011;49539;48.160;11.530;2023-10-19T07:24:54;11.95;;;6.22;;
55148;SDS011;49539;48.160;11.530;2023-10-19T07:27:21;10.82;;;7.13;;
55148;SDS011;49539;48.160;11.530;2023-10-19T07:29:46;11.02;;;7.05;;
55148;SDS011;49539;48.160;11.530;2023-10-19T07:32:13;10.68;;;7.05;;
55148;SDS011;49539;48.160;11.530;2023-10-19T07:34:39;12.75;;;7.97;;
55148;SDS011;49539;48.160;11.530;2023-10-19T07:37:06;10.50;;;6.57;;
55148;SDS011;49539;48.160;11.530;2023-10-19T07:39:32;11.32;;;7.05;;
55148;SDS011;49539;48.160;11.530;2023-10-19T07:41:59;15.45;;;9.80;;
55148;SDS011;49539;48.160;11.530;2023-10-19T07:44:24;36.75;;;22.60;;
55148;SDS011;49539;48.160;11.530;2023-10-19T07:46:49;18.13;;;11.90;;
55148;SDS011;49539;48.160;11.530;2023-10-19T07:49:14;13.10;;;6.87;;
55148;SDS011;49539;48.160;11.530;2023-10-19T07:51:44;13.98;;;6.95;;
55148;SDS011;49539;48.160;11.530;2023-10-19T07:54:14;12.57;;;7.03;;
55148;SDS011;49539;48.160;11.530;2023-10-19T07:56:41;10.93;;;6.18;;
55148;SDS011;49539;48.160;11.530;2023-10-19T07:59:06;10.98;;;5.50;;
55148;SDS011;49539;48.160;11.530;2023-10-19T08:01:32;9.77;;;5.82;;
55148;SDS011;49539;48.160;11.530;2023-10-19T08:03:57;6.85;;;4.80;;
55148;SDS011;49539;48.160;11.530;2023-10-19T08:06:22;8.40;;;4.85;;
55148;SDS011;49539;48.160;11.530;2023-10-19T08:08:48;9.07;;;4.83;;
55148;SDS011;49539;48.160;11.530;2023-10-19T08:11:13;9.00;;;4.70;;
55148;SDS011;49539;48.160;11.530;2023-10-19T08:13:38;15.77;;;6.53;;
55148;SDS011;49539;48.160;11.530;2023-10-19T08:16:05;27.35;;;9.07;;
55148;SDS011;49539;48.160;11.530;2023-10-19T08:18:32;8.93;;;5.13;;
55148;SDS011;49539;48.160;11.530;2023-10-19T08:20:58;10.82;;;5.82;;
55148;SDS011;49539;48.160;11.530;2023-10-19T08:23:23;10.48;;;6.00;;
55148;SDS011;49539;48.160;11.530;2023-10-19T08:25:52;12.70;;;6.47;;
55148;SDS011;49539;48.160;11.530;2023-10-19T08:28:17;13.32;;;7.15;;
55148;SDS011;49539;48.160;11.530;2023-10-19T08:30:44;11.57;;;5.63;;
55148;SDS011;49539;48.160;11.530;2023-10-19T08:33:21;9.75;;;5.55;;
55148;SDS011;49539;48.160;11.530;2023-10-19T08:35:47;9.82;;;4.95;;
55148;SDS011;49539;48.160;11.530;2023-10-19T08:38:12;9.52;;;4.85;;
55148;SDS011;49539;48.160;11.530;2023-10-19T08:40:37;8.15;;;4.10;;
55148;SDS011;49539;48.160;11.530;2023-10-19T08:43:06;10.13;;;4.97;;
55148;SDS011;49539;48.160;11.530;2023-10-19T08:45:35;8.65;;;4.60;;
55148;SDS011;49539;48.160;11.530;2023-10-19T08:48:00;10.85;;;4.80;;
55148;SDS011;49539;48.160;11.530;2023-10-19T08:50:30;9.02;;;5.55;;
55148;SDS011;49539;48.160;11.530;2023-10-19T08:52:56;54.97;;;25.67;;
55148;SDS011;49539;48.160;11.530;2023-10-19T08:55:26;104.32;;;48.60;;
55148;SDS011;49539;48.160;11.530;2023-10-19T08:57:52;87.95;;;42.75;;
55148;SDS011;49539;48.160;11.530;2023-10-19T09:00:18;73.90;;;34.30;;
55148;SDS011;49539;48.160;11.530;2023-10-19T09:02:45;37.58;;;18.88;;
55148;SDS011;49539;48.160;11.530;2023-10-19T09:05:11;18.17;;;9.20;;
55148;SDS011;49539;48.160;11.530;2023-10-19T09:07:50;11.18;;;6.55;;
55148;SDS011;49539;48.160;11.530;2023-10-19T09:10:28;15.88;;;6.95;;
55148;SDS011;49539;48.160;11.530;2023-10-19T09:13:05;21.92;;;10.25;;
55148;SDS011;49539;48.160;11.530;2023-10-19T09:15:34;16.52;;;8.98;;
55148;SDS011;49539;48.160;11.530;2023-10-19T09:18:16;12.52;;;6.22;;
55148;SDS011;49539;48.160;11.530;2023-10-19T09:20:43;18.90;;;10.75;;
55148;SDS011;49539;48.160;11.530;2023-10-19T09:23:20;21.77;;;9.20;;
55148;SDS011;49539;48.160;11.530;2023-10-19T09:25:47;13.02;;;7.22;;
55148;SDS011;49539;48.160;11.530;2023-10-19T09:28:12;10.27;;;6.07;;
55148;SDS011;49539;48.160;11.530;2023-10-19T09:30:39;9.55;;;5.00;;
55148;SDS011;49539;48.160;11.530;2023-10-19T09:33:06;9.88;;;5.82;;
55148;SDS011;49539;48.160;11.530;2023-10-19T09:35:34;6.50;;;4.30;;
55148;SDS011;49539;48.160;11.530;2023-10-19T09:37:59;8.38;;;3.15;;
55148;SDS011;49539;48.160;11.530;2023-10-19T09:40:26;7.65;;;5.18;;
55148;SDS011;49539;48.160;11.530;2023-10-19T09:42:54;8.18;;;3.92;;
55148;SDS011;49539;48.160;11.530;2023-10-19T09:45:21;9.85;;;4.82;;
55148;SDS011;49539;48.160;11.530;2023-10-19T09:47:49;7.95;;;4.15;;
55148;SDS011;49539;48.160;11.530;2023-10-19T09:50:15;8.63;;;4.93;;
55148;SDS011;49539;48.160;11.530;2023-10-19T09:52:40;12.32;;;5.28;;
55148;SDS011;49539;48.160;11.530;2023-10-19T09:55:08;17.90;;;4.97;;
55148;SDS011;49539;48.160;11.530;2023-10-19T10:00:20;9.27;;;4.50;;
55148;SDS011;49539;48.160;11.530;2023-10-19T10:02:49;9.18;;;4.65;;
55148;SDS011;49539;48.160;11.530;2023-10-19T10:10:46;8.57;;;4.20;;
55148;SDS011;49539;48.160;11.530;2023-10-19T10:15:49;8.23;;;4.20;;
55148;SDS011;49539;48.160;11.530;2023-10-19T10:18:15;14.70;;;7.72;;
55148;SDS011;49539;48.160;11.530;2023-10-19T10:20:40;9.57;;;4.35;;
55148;SDS011;49539;48.160;11.530;2023-10-19T10:23:19;7.07;;;3.90;;
55148;SDS011;49539;48.160;11.530;2023-10-19T10:25:49;7.38;;;4.43;;
55148;SDS011;49539;48.160;11.530;2023-10-19T10:28:16;8.40;;;4.38;;
55148;SDS011;49539;48.160;11.530;2023-10-19T10:33:41;5.80;;;3.63;;
55148;SDS011;49539;48.160;11.530;2023-10-19T10:36:12;8.60;;;4.00;;
55148;SDS011;49539;48.160;11.530;2023-10-19T10:38:37;6.93;;;3.72;;
55148;SDS011;49539;48.160;11.530;2023-10-19T10:41:03;7.20;;;4.38;;
55148;SDS011;49539;48.160;11.530;2023-10-19T10:43:28;7.10;;;3.78;;
55148;SDS011;49539;48.160;11.530;2023-10-19T10:46:03;6.38;;;3.72;;
55148;SDS011;49539;48.160;11.530;2023-10-19T10:48:29;7.22;;;4.10;;
55148;SDS011;49539;48.160;11.530;2023-10-19T10:50:54;7.72;;;3.92;;
55148;SDS011;49539;48.160;11.530;2023-10-19T10:53:20;8.25;;;4.07;;
55148;SDS011;49539;48.160;11.530;2023-10-19T10:55:48;7.18;;;3.92;;
55148;SDS011;49539;48.160;11.530;2023-10-19T10:58:16;6.67;;;3.00;;
55148;SDS011;49539;48.160;11.530;2023-10-19T11:00:42;8.07;;;3.22;;
55148;SDS011;49539;48.160;11.530;2023-10-19T11:03:08;6.60;;;3.83;;
55148;SDS011;49539;48.160;11.530;2023-10-19T11:05:38;7.00;;;3.45;;
55148;SDS011;49539;48.160;11.530;2023-10-19T11:08:14;8.68;;;3.40;;
55148;SDS011;49539;48.160;11.530;2023-10-19T11:10:41;9.32;;;4.50;;
55148;SDS011;49539;48.160;11.530;2023-10-19T11:13:11;11.15;;;4.20;;
55148;SDS011;49539;48.160;11.530;2023-10-19T11:15:37;6.90;;;3.58;;
55148;SDS011;49539;48.160;11.530;2023-10-19T11:18:02;7.13;;;3.58;;
55148;SDS011;49539;48.160;11.530;2023-10-19T11:20:28;6.20;;;4.15;;
55148;SDS011;49539;48.160;11.530;2023-10-19T11:22:54;9.35;;;3.80;;
55148;SDS011;49539;48.160;11.530;2023-10-19T11:25:28;5.38;;;3.33;;
55148;SDS011;49539;48.160;11.530;2023-10-19T11:27:55;5.32;;;2.60;;
55148;SDS011;49539;48.160;11.530;2023-10-19T11:30:24;10.15;;;3.25;;
55148;SDS011;49539;48.160;11.530;2023-10-19T11:32:49;4.65;;;2.75;;
55148;SDS011;49539;48.160;11.530;2023-10-19T11:35:18;4.45;;;2.47;;
55148;SDS011;49539;48.160;11.530;2023-10-19T11:37:49;9.90;;;3.33;;
55148;SDS011;49539;48.160;11.530;2023-10-19T11:40:15;5.63;;;3.00;;
55148;SDS011;49539;48.160;11.530;2023-10-19T11:42:41;6.30;;;3.40;;
55148;SDS011;49539;48.160;11.530;2023-10-19T11:45:06;25.52;;;4.88;;
55148;SDS011;49539;48.160;11.530;2023-10-19T11:47:32;30.33;;;6.63;;
55148;SDS011;49539;48.160;11.530;2023-10-19T11:49:57;17.85;;;5.20;;
55148;SDS011;49539;48.160;11.530;2023-10-19T11:52:22;11.30;;;4.80;;
55148;SDS011;49539;48.160;11.530;2023-10-19T11:54:48;9.10;;;5.32;;
55148;SDS011;49539;48.160;11.530;2023-10-19T11:57:13;10.07;;;5.00;;
55148;SDS011;49539;48.160;11.530;2023-10-19T11:59:38;12.52;;;6.22;;
55148;SDS011;49539;48.160;11.530;2023-10-19T12:02:06;11.10;;;5.93;;
55148;SDS011;49539;48.160;11.530;2023-10-19T12:04:32;9.02;;;5.40;;
55148;SDS011;49539;48.160;11.530;2023-10-19T12:07:01;9.05;;;5.00;;
55148;SDS011;49539;48.160;11.530;2023-10-19T12:09:26;8.95;;;5.30;;
55148;SDS011;49539;48.160;11.530;2023-10-19T12:11:53;10.25;;;5.03;;
55148;SDS011;49539;48.160;11.530;2023-10-19T12:14:19;9.93;;;4.88;;
55148;SDS011;49539;48.160;11.530;2023-10-19T12:16:46;9.63;;;4.90;;
55148;SDS011;49539;48.160;11.530;2023-10-19T12:19:11;7.43;;;4.07;;
55148;SDS011;49539;48.160;11.530;2023-10-19T12:21:36;7.50;;;4.37;;
55148;SDS011;49539;48.160;11.530;2023-10-19T12:24:06;7.10;;;3.58;;
55148;SDS011;49539;48.160;11.530;2023-10-19T12:26:32;10.68;;;4.07;;
55148;SDS011;49539;48.160;11.530;2023-10-19T12:28:58;34.80;;;8.55;;
55148;SDS011;49539;48.160;11.530;2023-10-19T12:31:23;13.88;;;5.60;;
55148;SDS011;49539;48.160;11.530;2023-10-19T12:33:50;13.20;;;4.80;;
55148;SDS011;49539;48.160;11.530;2023-10-19T12:36:15;12.10;;;4.30;;
55148;SDS011;49539;48.160;11.530;2023-10-19T12:38:56;9.38;;;3.97;;
55148;SDS011;49539;48.160;11.530;2023-10-19T12:41:22;11.50;;;4.57;;
55148;SDS011;49539;48.160;11.530;2023-10-19T12:43:47;8.23;;;4.15;;
55148;SDS011;49539;48.160;11.530;2023-10-19T12:46:13;10.38;;;4.85;;
55148;SDS011;49539;48.160;11.530;2023-10-19T12:48:39;8.30;;;4.30;;
55148;SDS011;49539;48.160;11.530;2023-10-19T12:51:06;10.50;;;4.10;;
55148;SDS011;49539;48.160;11.530;2023-10-19T12:53:32;9.80;;;3.97;;
55148;SDS011;49539;48.160;11.530;2023-10-19T12:55:58;6.10;;;3.50;;
55148;SDS011;49539;48.160;11.530;2023-10-19T12:58:24;7.85;;;3.50;;
55148;SDS011;49539;48.160;11.530;2023-10-19T13:00:51;10.23;;;4.15;;
55148;SDS011;49539;48.160;11.530;2023-10-19T13:03:17;9.20;;;3.93;;
55148;SDS011;49539;48.160;11.530;2023-10-19T13:05:43;8.15;;;3.45;;
55148;SDS011;49539;48.160;11.530;2023-10-19T13:08:13;9.38;;;4.00;;
55148;SDS011;49539;48.160;11.530;2023-10-19T13:10:39;7.05;;;2.85;;
55148;SDS011;49539;48.160;11.530;2023-10-19T13:13:07;4.78;;;3.05;;
55148;SDS011;49539;48.160;11.530;2023-10-19T13:15:35;8.38;;;2.47;;
55148;SDS011;49539;48.160;11.530;2023-10-19T13:18:00;4.82;;;2.55;;
55148;SDS011;49539;48.160;11.530;2023-10-19T13:20:27;5.90;;;3.38;;
55148;SDS011;49539;48.160;11.530;2023-10-19T13:22:53;4.97;;;2.75;;
55148;SDS011;49539;48.160;11.530;2023-10-19T13:25:19;10.02;;;3.33;;
55148;SDS011;49539;48.160;11.530;2023-10-19T13:27:54;4.68;;;2.45;;
55148;SDS011;49539;48.160;11.530;2023-10-19T13:30:19;5.57;;;1.90;;
55148;SDS011;49539;48.160;11.530;2023-10-19T13:32:45;5.10;;;2.40;;
55148;SDS011;49539;48.160;11.530;2023-10-19T13:35:11;3.08;;;2.00;;
55148;SDS011;49539;48.160;11.530;2023-10-19T13:37:37;7.20;;;2.70;;
55148;SDS011;49539;48.160;11.530;2023-10-19T13:40:03;4.32;;;2.35;;
55148;SDS011;49539;48.160;11.530;2023-10-19T13:42:31;5.18;;;2.50;;
55148;SDS011;49539;48.160;11.530;2023-10-19T13:44:57;5.28;;;2.63;;
55148;SDS011;49539;48.160;11.530;2023-10-19T13:47:23;7.03;;;2.70;;
55148;SDS011;49539;48.160;11.530;2023-10-19T13:49:48;4.27;;;2.60;;
55148;SDS011;49539;48.160;11.530;2023-10-19T13:52:13;6.60;;;2.70;;
55148;SDS011;49539;48.160;11.530;2023-10-19T13:54:46;7.00;;;2.97;;
55148;SDS011;49539;48.160;11.530;2023-10-19T13:57:11;7.05;;;3.17;;
55148;SDS011;49539;48.160;11.530;2023-10-19T13:59:36;4.53;;;2.33;;
55148;SDS011;49539;48.160;11.530;2023-10-19T14:02:02;7.75;;;2.85;;
55148;SDS011;49539;48.160;11.530;2023-10-19T14:04:27;4.80;;;2.75;;
55148;SDS011;49539;48.160;11.530;2023-10-19T14:06:52;4.88;;;2.53;;
55148;SDS011;49539;48.160;11.530;2023-10-19T14:09:19;7.90;;;2.88;;
55148;SDS011;49539;48.160;11.530;2023-10-19T14:11:44;9.27;;;2.78;;
55148;SDS011;49539;48.160;11.530;2023-10-19T14:14:12;3.63;;;2.35;;
55148;SDS011;49539;48.160;11.530;2023-10-19T14:16:40;4.68;;;2.65;;
55148;SDS011;49539;48.160;11.530;2023-10-19T14:19:08;4.38;;;2.75;;
55148;SDS011;49539;48.160;11.530;2023-10-19T14:21:33;5.78;;;2.55;;
55148;SDS011;49539;48.160;11.530;2023-10-19T14:24:03;7.57;;;2.88;;
55148;SDS011;49539;48.160;11.530;2023-10-19T14:26:28;4.05;;;2.50;;
55148;SDS011;49539;48.160;11.530;2023-10-19T14:28:53;5.72;;;2.83;;
55148;SDS011;49539;48.160;11.530;2023-10-19T14:31:19;6.53;;;2.92;;
55148;SDS011;49539;48.160;11.530;2023-10-19T14:33:45;6.00;;;3.50;;
55148;SDS011;49539;48.160;11.530;2023-10-19T14:36:10;5.93;;;3.55;;
55148;SDS011;49539;48.160;11.530;2023-10-19T14:38:36;9.15;;;4.47;;
55148;SDS011;49539;48.160;11.530;2023-10-19T14:41:03;11.70;;;4.63;;